Time;durP1;ratioP1;P1;durP2;ratioP2;P2;SDS_P1;SDS_P2;PMS_P1;PMS_P2;Temp;Humidity;BMP_temperature;BMP_pressure;BME280_temperature;BME280_humidity;BME280_pressure;Samples;Min_cycle;Max_cycle;Signal;HPM_P1;HPM_P2
2023/07/17 00:02:10;;;;;;;15.10;13.90;;;;;;;26.37;54.22;95372.09;6124510;28;109928;-70
2023/07/17 00:05:13;;;;;;;15.43;14.23;;;;;;;26.19;54.37;95369.50;6119439;28;109075;-70
2023/07/17 00:08:17;;;;;;;14.23;13.13;;;;;;;26.30;54.31;95367.25;6113160;28;109055;-70
2023/07/17 00:11:20;;;;;;;14.63;13.43;;;;;;;26.37;53.58;95372.09;6117524;28;109293;-71
2023/07/17 00:14:24;;;;;;;15.40;14.00;;;;;;;26.35;53.59;95372.41;6108187;28;110354;-69
2023/07/17 00:17:28;;;;;;;14.20;13.10;;;;;;;26.41;53.62;95375.72;6107577;28;109604;-72
2023/07/17 00:20:32;;;;;;;14.30;13.30;;;;;;;26.62;53.07;95387.25;6116625;28;109148;-70
2023/07/17 00:23:35;;;;;;;14.30;13.07;;;;;;;26.72;53.25;95384.22;6124043;28;110038;-71
2023/07/17 00:26:38;;;;;;;14.57;13.37;;;;;;;26.77;53.00;95378.66;6116112;28;109052;-71
2023/07/17 00:29:44;;;;;;;14.53;13.43;;;;;;;26.81;52.81;95381.47;6125101;28;109097;-70
2023/07/17 00:32:47;;;;;;;14.63;13.63;;;;;;;26.83;52.60;95382.69;6121739;28;109118;-71
2023/07/17 00:35:50;;;;;;;14.80;13.70;;;;;;;26.80;53.16;95383.34;6113075;28;109248;-71
2023/07/17 00:38:53;;;;;;;14.93;13.70;;;;;;;26.83;53.21;95384.59;6112473;28;109311;-72
2023/07/17 00:41:56;;;;;;;15.13;13.80;;;;;;;26.80;53.25;95386.03;6126571;28;109236;-71
2023/07/17 00:45:01;;;;;;;14.60;13.50;;;;;;;26.84;52.47;95384.28;6134963;28;109007;-71
2023/07/17 00:48:04;;;;;;;14.63;13.63;;;;;;;26.88;52.75;95389.75;6116623;28;109054;-71
2023/07/17 00:51:08;;;;;;;15.03;13.83;;;;;;;26.86;52.29;95390.09;6102115;28;109133;-71
2023/07/17 00:54:14;;;;;;;14.53;13.43;;;;;;;26.85;51.94;95396.59;6114342;28;109102;-70
2023/07/17 00:57:18;;;;;;;13.03;12.03;;;;;;;26.84;51.79;95400.38;6112120;28;109084;-71
2023/07/17 01:00:24;;;;;;;15.03;13.73;;;;;;;26.83;51.90;95390.75;6105628;28;109119;-67
2023/07/17 01:03:27;;;;;;;14.03;12.73;;;;;;;26.88;51.85;95389.75;6115065;28;109244;-71
2023/07/17 01:06:30;;;;;;;13.10;12.10;;;;;;;26.91;51.84;95393.72;6113046;28;109657;-71
2023/07/17 01:09:35;;;;;;;13.60;12.50;;;;;;;26.92;51.63;95385.34;6111365;28;109900;-70
2023/07/17 01:12:38;;;;;;;13.43;12.43;;;;;;;26.93;51.11;95386.13;6103612;28;109970;-71
2023/07/17 01:15:43;;;;;;;12.90;11.90;;;;;;;26.91;50.99;95385.66;6114529;28;110018;-70
2023/07/17 01:18:46;;;;;;;12.17;11.23;;;;;;;26.86;51.21;95386.63;6112354;28;111748;-72
2023/07/17 01:21:52;;;;;;;11.83;10.73;;;;;;;26.83;50.19;95398.03;6114495;28;109640;-71
2023/07/17 01:24:57;;;;;;;11.50;10.60;;;;;;;26.83;49.87;95395.34;6109877;28;109189;-71
2023/07/17 01:28:00;;;;;;;11.43;10.50;;;;;;;26.82;50.17;95391.88;6110535;28;109093;-71
2023/07/17 01:31:04;;;;;;;11.07;10.27;;;;;;;26.86;50.03;95392.00;6111971;28;109408;-68
2023/07/17 01:34:07;;;;;;;11.17;10.17;;;;;;;26.89;49.50;95390.59;6107129;28;109071;-71
2023/07/17 01:37:10;;;;;;;11.10;10.30;;;;;;;26.89;49.85;95401.31;6106534;28;109156;-71
2023/07/17 01:40:17;;;;;;;10.83;10.03;;;;;;;26.87;49.45;95398.94;6113230;28;109374;-71
2023/07/17 01:43:20;;;;;;;11.70;10.83;;;;;;;26.89;49.42;95398.63;6112109;28;110917;-71
2023/07/17 01:46:23;;;;;;;10.93;9.93;;;;;;;26.87;49.67;95394.34;6106030;28;109071;-71
2023/07/17 01:49:26;;;;;;;10.57;9.57;;;;;;;26.84;49.16;95392.31;6115667;28;109395;-71
2023/07/17 01:52:30;;;;;;;10.80;10.00;;;;;;;26.82;49.40;95397.25;6111620;28;109060;-71
2023/07/17 01:55:34;;;;;;;10.50;9.70;;;;;;;26.91;48.95;95399.09;6112521;28;111136;-71
2023/07/17 01:58:37;;;;;;;11.17;10.37;;;;;;;26.93;49.65;95391.50;6104001;28;109207;-71
2023/07/17 02:01:40;;;;;;;10.90;10.10;;;;;;;26.93;49.62;95404.91;6119198;28;109086;-71
2023/07/17 02:04:43;;;;;;;11.37;9.93;;;;;;;26.91;49.63;95405.25;6128005;28;109376;-70
2023/07/17 02:07:46;;;;;;;10.17;9.37;;;;;;;26.94;49.73;95409.19;6122636;28;109134;-71
2023/07/17 02:10:52;;;;;;;10.83;10.00;;;;;;;26.94;49.31;95409.97;6110437;28;109260;-71
2023/07/17 02:13:55;;;;;;;10.67;9.77;;;;;;;26.92;49.08;95414.88;6139801;28;109134;-61
2023/07/17 02:16:59;;;;;;;10.80;9.90;;;;;;;26.92;49.54;95422.94;6122238;28;109773;-61
2023/07/17 02:20:06;;;;;;;10.30;9.30;;;;;;;26.93;48.89;95427.19;6109262;28;110120;-62
2023/07/17 02:23:11;;;;;;;10.30;9.60;;;;;;;26.94;48.95;95420.72;6138860;28;109846;-62
2023/07/17 02:26:15;;;;;;;10.90;10.07;;;;;;;26.95;49.19;95421.50;6139012;28;109070;-61
2023/07/17 02:29:18;;;;;;;10.33;9.53;;;;;;;26.95;49.20;95416.13;6132070;28;110405;-61
2023/07/17 02:32:22;;;;;;;10.50;9.50;;;;;;;26.92;49.13;95419.47;6118103;28;109165;-61
2023/07/17 02:35:25;;;;;;;10.30;9.50;;;;;;;26.89;48.78;95414.75;6139542;28;110502;-61
2023/07/17 02:38:28;;;;;;;10.20;9.40;;;;;;;26.83;48.48;95420.28;6118147;28;110028;-61
2023/07/17 02:41:32;;;;;;;9.83;9.13;;;;;;;26.80;49.22;95425.53;6122181;28;109067;-61
2023/07/17 02:44:35;;;;;;;9.97;9.17;;;;;;;26.84;48.62;95421.09;6110700;28;109081;-61
2023/07/17 02:47:38;;;;;;;10.10;9.40;;;;;;;26.87;48.94;95429.25;6138200;28;110801;-63
2023/07/17 02:50:42;;;;;;;10.00;9.30;;;;;;;26.91;48.89;95428.63;6138642;28;109127;-63
2023/07/17 02:53:45;;;;;;;9.37;8.50;;;;;;;26.92;48.13;95430.22;6125572;28;109064;-61
2023/07/17 02:56:49;;;;;;;9.63;8.73;;;;;;;26.91;48.31;95421.38;6110324;28;109574;-61
2023/07/17 02:59:54;;;;;;;13.97;12.70;;;;;;;26.84;47.84;95431.81;6118518;28;109114;-61
2023/07/17 03:02:57;;;;;;;13.27;12.20;;;;;;;26.85;47.91;95430.72;6114479;28;109064;-61
2023/07/17 03:06:00;;;;;;;12.77;11.67;;;;;;;26.87;48.19;95436.53;6104958;28;109141;-61
2023/07/17 03:09:03;;;;;;;19.33;17.83;;;;;;;26.82;47.73;95428.69;6126209;28;109014;-61
2023/07/17 03:12:09;;;;;;;13.93;12.83;;;;;;;26.85;47.53;95430.72;6138284;28;109186;-61
2023/07/17 03:15:12;;;;;;;12.73;11.80;;;;;;;26.90;47.63;95440.50;6129318;28;109589;-62
2023/07/17 03:18:15;;;;;;;15.43;14.10;;;;;;;26.80;47.41;95412.13;6122351;28;110168;-61
2023/07/17 03:21:19;;;;;;;15.93;14.67;;;;;;;26.93;47.90;95439.84;6115295;28;109080;-62
2023/07/17 03:24:22;;;;;;;12.73;11.73;;;;;;;26.90;48.27;95435.13;6090317;28;108792;-62
2023/07/17 03:27:27;;;;;;;17.00;15.63;;;;;;;26.93;48.09;95439.84;6112752;28;110223;-63
2023/07/17 03:30:31;;;;;;;18.70;17.23;;;;;;;26.92;47.87;95441.72;6114293;28;109061;-62
2023/07/17 03:33:35;;;;;;;16.63;15.33;;;;;;;26.92;48.15;95444.41;6114102;28;109108;-61
2023/07/17 03:36:38;;;;;;;15.27;14.07;;;;;;;26.96;48.08;95439.19;6122373;28;109242;-62
2023/07/17 03:39:41;;;;;;;13.73;12.40;;;;;;;26.96;48.28;95449.91;6117398;28;109823;-63
2023/07/17 03:42:45;;;;;;;10.83;9.93;;;;;;;26.84;46.82;95448.72;6119904;28;110164;-62
2023/07/17 03:45:51;;;;;;;10.90;9.90;;;;;;;26.77;47.09;95442.31;6115249;28;109203;-62
2023/07/17 03:48:54;;;;;;;14.00;12.80;;;;;;;26.83;47.27;95452.53;6113910;28;109964;-61
2023/07/17 03:51:58;;;;;;;19.70;18.10;;;;;;;26.86;47.74;95454.56;6125081;28;108813;-62
2023/07/17 03:55:01;;;;;;;13.80;12.50;;;;;;;26.90;48.17;95454.72;6119482;28;109081;-61
2023/07/17 03:58:06;;;;;;;14.37;13.27;;;;;;;26.93;47.67;95454.06;6122762;28;108988;-61
2023/07/17 04:01:09;;;;;;;12.40;11.20;;;;;;;26.84;47.46;95450.63;6126519;28;109093;-62
2023/07/17 04:04:12;;;;;;;15.10;13.80;;;;;;;26.87;47.96;95453.44;6103415;28;108984;-61
2023/07/17 04:07:15;;;;;;;13.10;12.00;;;;;;;26.91;47.39;95469.72;6114320;28;109509;-60
2023/07/17 04:10:19;;;;;;;14.63;11.43;;;;;;;26.95;48.67;95475.22;6127358;28;108824;-61
2023/07/17 04:13:23;;;;;;;12.07;10.90;;;;;;;26.99;48.57;95468.06;6123497;28;109488;-61
2023/07/17 04:16:26;;;;;;;9.23;8.30;;;;;;;26.85;47.80;95474.47;6123391;28;109471;-65
2023/07/17 04:19:30;;;;;;;9.20;8.30;;;;;;;26.87;48.26;95477.59;6111584;28;111002;-61
2023/07/17 04:22:33;;;;;;;9.17;8.20;;;;;;;26.92;47.47;95473.97;6112323;28;109067;-61
2023/07/17 04:25:39;;;;;;;9.57;8.67;;;;;;;26.94;48.11;95477.09;6101879;28;110055;-60
2023/07/17 04:28:44;;;;;;;10.23;9.17;;;;;;;27.02;47.46;95470.09;6113921;28;109055;-62
2023/07/17 04:31:48;;;;;;;12.27;10.97;;;;;;;27.06;47.52;95471.03;6111909;28;109080;-62
2023/07/17 04:34:51;;;;;;;9.10;8.20;;;;;;;26.74;47.12;95464.44;6113640;28;111743;-61
2023/07/17 04:37:56;;;;;;;8.90;8.10;;;;;;;26.70;47.16;95458.91;6102341;28;109165;-62
2023/07/17 04:40:59;;;;;;;9.87;7.97;;;;;;;26.75;47.14;95471.38;6113326;28;109111;-62
2023/07/17 04:44:04;;;;;;;9.63;8.83;;;;;;;26.78;46.93;95470.72;6112624;28;109086;-62
2023/07/17 04:47:07;;;;;;;7.80;7.17;;;;;;;26.78;46.39;95471.53;6108394;28;110169;-62
2023/07/17 04:50:10;;;;;;;8.20;7.50;;;;;;;26.74;45.86;95475.19;6106487;28;109142;-62
2023/07/17 04:53:13;;;;;;;7.97;6.87;;;;;;;26.68;46.03;95487.22;6113096;28;109104;-62
2023/07/17 04:56:16;;;;;;;8.90;7.67;;;;;;;26.58;45.66;95482.97;6112700;28;109530;-62
2023/07/17 04:59:21;;;;;;;10.47;7.30;;;;;;;26.53;45.33;95483.16;6102553;28;109260;-62
2023/07/17 05:02:24;;;;;;;8.07;7.40;;;;;;;26.54;45.45;95487.41;6112441;28;109093;-62
2023/07/17 05:05:28;;;;;;;8.37;7.57;;;;;;;26.59;45.59;95487.25;6112368;28;109055;-62
2023/07/17 05:08:31;;;;;;;9.00;8.10;;;;;;;26.57;45.38;95479.50;6112621;28;109100;-62
2023/07/17 05:11:34;;;;;;;13.23;8.57;;;;;;;26.58;45.62;95481.09;6102142;28;110144;-62
2023/07/17 05:14:39;;;;;;;9.60;8.67;;;;;;;26.66;45.70;95482.16;6112282;28;109236;-62
2023/07/17 05:17:42;;;;;;;11.00;9.90;;;;;;;26.57;46.67;95492.16;6112742;28;108807;-62
2023/07/17 05:20:45;;;;;;;10.13;9.23;;;;;;;26.52;46.78;95492.31;6111872;28;110163;-64
2023/07/17 05:23:49;;;;;;;11.77;10.67;;;;;;;26.49;47.41;95492.97;6101983;28;111642;-62
2023/07/17 05:26:52;;;;;;;11.60;10.50;;;;;;;26.37;47.75;95498.22;6111793;28;110318;-62
2023/07/17 05:29:56;;;;;;;11.30;10.20;;;;;;;26.36;47.82;95502.00;6112128;28;108978;-62
2023/07/17 05:32:59;;;;;;;11.43;10.43;;;;;;;26.33;48.64;95498.06;6110798;28;109036;-62
2023/07/17 05:36:03;;;;;;;11.27;10.13;;;;;;;26.50;47.71;95499.91;6111715;28;109235;-62
2023/07/17 05:39:06;;;;;;;11.00;10.00;;;;;;;26.60;47.29;95502.22;6116291;28;109026;-66
2023/07/17 05:42:09;;;;;;;11.23;10.33;;;;;;;26.71;47.59;95498.09;6116107;28;109172;-61
2023/07/17 05:45:13;;;;;;;11.20;10.30;;;;;;;26.71;46.97;95503.44;6105646;28;109110;-62
2023/07/17 05:48:16;;;;;;;9.90;8.73;;;;;;;26.65;47.26;95499.38;6115975;28;109130;-62
2023/07/17 05:51:19;;;;;;;12.13;9.30;;;;;;;26.53;47.35;95499.25;6115127;28;109144;-62
2023/07/17 05:54:23;;;;;;;9.77;8.30;;;;;;;26.24;47.96;95497.34;6115674;28;109069;-61
2023/07/17 05:57:26;;;;;;;10.10;7.90;;;;;;;26.33;47.68;95499.97;6104824;28;109574;-62
2023/07/17 06:00:31;;;;;;;8.57;7.77;;;;;;;26.63;47.33;95504.28;6115660;28;109149;-62
2023/07/17 06:03:34;;;;;;;9.20;8.40;;;;;;;26.75;46.91;95492.88;6115716;28;109140;-62
2023/07/17 06:06:37;;;;;;;8.60;7.80;;;;;;;26.83;47.44;95500.06;6110808;28;109104;-62
2023/07/17 06:09:40;;;;;;;9.43;8.37;;;;;;;26.87;47.35;95504.47;6110006;28;109191;-64
2023/07/17 06:12:43;;;;;;;9.20;8.40;;;;;;;27.05;47.18;95507.03;6115835;28;109945;-62
2023/07/17 06:15:48;;;;;;;10.10;8.53;;;;;;;27.12;47.51;95502.75;6115701;28;110307;-62
2023/07/17 06:18:51;;;;;;;9.77;7.80;;;;;;;27.20;47.91;95503.78;6106356;28;109649;-61
2023/07/17 06:21:54;;;;;;;9.43;8.73;;;;;;;27.30;47.69;95503.44;6114667;28;110090;-61
2023/07/17 06:24:57;;;;;;;10.30;9.27;;;;;;;27.35;48.17;95499.75;6114883;28;109085;-61
2023/07/17 06:28:01;;;;;;;11.50;8.30;;;;;;;27.44;47.53;95500.47;6114516;28;109817;-61
2023/07/17 06:31:05;;;;;;;13.10;8.10;;;;;;;27.40;47.44;95497.66;6104341;28;109069;-61
2023/07/17 06:34:08;;;;;;;8.70;8.00;;;;;;;27.42;47.49;95494.66;6115186;28;109964;-62
2023/07/17 06:37:12;;;;;;;9.20;8.30;;;;;;;27.54;47.42;95496.59;6115299;28;109425;-63
2023/07/17 06:40:15;;;;;;;9.80;8.80;;;;;;;27.64;47.08;95493.50;6114854;28;109053;-61
2023/07/17 06:43:18;;;;;;;9.97;8.97;;;;;;;27.65;47.57;95495.06;6104597;28;110926;-62
2023/07/17 06:46:22;;;;;;;12.77;10.10;;;;;;;27.74;47.30;95499.28;6115261;28;109860;-61
2023/07/17 06:49:26;;;;;;;9.70;8.80;;;;;;;27.77;47.16;95492.44;6114640;28;109243;-61
2023/07/17 06:52:29;;;;;;;9.40;8.60;;;;;;;27.72;47.59;95489.94;6108269;28;109120;-62
2023/07/17 06:55:32;;;;;;;10.63;9.63;;;;;;;27.79;47.35;95490.19;6109952;28;109098;-63
2023/07/17 06:58:35;;;;;;;10.47;9.37;;;;;;;27.75;47.11;95483.91;6114502;28;109056;-62
2023/07/17 07:01:39;;;;;;;11.27;10.17;;;;;;;27.74;47.07;95485.81;6114423;28;109061;-63
2023/07/17 07:04:42;;;;;;;10.43;9.63;;;;;;;27.80;47.26;95488.28;6103820;28;109317;-62
2023/07/17 07:07:46;;;;;;;11.10;10.00;;;;;;;27.79;47.30;95484.81;6114540;28;109302;-62
2023/07/17 07:10:51;;;;;;;12.43;9.87;;;;;;;27.85;47.05;95486.16;6114938;28;113033;-62
2023/07/17 07:13:54;;;;;;;10.90;9.70;;;;;;;27.78;46.74;95480.56;6114599;28;109091;-63
2023/07/17 07:16:59;;;;;;;13.90;9.73;;;;;;;27.95;46.89;95480.41;6103578;28;109047;-62
2023/07/17 07:20:03;;;;;;;11.30;10.30;;;;;;;28.03;46.84;95478.75;6114116;28;109054;-62
2023/07/17 07:23:06;;;;;;;10.80;10.00;;;;;;;27.95;46.63;95468.88;6113335;28;109754;-63
2023/07/17 07:26:09;;;;;;;13.70;11.43;;;;;;;27.87;46.50;95477.78;6109385;28;109394;-63
2023/07/17 07:29:12;;;;;;;14.37;12.90;;;;;;;27.75;46.24;95473.94;6108293;28;109375;-62
2023/07/17 07:32:17;;;;;;;14.20;12.80;;;;;;;27.72;46.46;95463.03;6114272;28;109986;-63
2023/07/17 07:35:21;;;;;;;16.07;13.70;;;;;;;27.73;45.71;95470.81;6113666;28;109167;-62
2023/07/17 07:38:24;;;;;;;15.63;14.27;;;;;;;27.73;45.56;95465.44;6104401;28;109568;-62
2023/07/17 07:41:27;;;;;;;12.63;11.43;;;;;;;27.75;46.13;95465.88;6113415;28;108749;-63
2023/07/17 07:44:30;;;;;;;14.00;12.57;;;;;;;27.80;45.78;95461.41;6113595;28;109086;-62
2023/07/17 07:47:35;;;;;;;13.90;12.70;;;;;;;27.81;45.78;95462.97;6113482;28;109084;-62
2023/07/17 07:50:38;;;;;;;13.77;12.07;;;;;;;27.84;45.91;95467.69;6102844;28;109465;-62
2023/07/17 07:53:41;;;;;;;14.53;13.20;;;;;;;27.83;45.29;95460.72;6111953;28;109351;-62
2023/07/17 07:56:45;;;;;;;16.10;14.53;;;;;;;27.84;45.67;95463.09;6113915;28;110078;-63
2023/07/17 07:59:49;;;;;;;13.73;12.40;;;;;;;27.96;45.39;95455.06;6113596;28;109011;-63
2023/07/17 08:02:54;;;;;;;13.10;12.00;;;;;;;28.13;45.66;95459.47;6103595;28;111622;-63
2023/07/17 08:05:58;;;;;;;13.10;11.80;;;;;;;28.12;45.37;95451.75;6113165;28;109139;-69
2023/07/17 08:09:01;;;;;;;13.70;12.37;;;;;;;28.11;45.28;95456.34;6113269;28;109064;-69
2023/07/17 08:12:05;;;;;;;13.40;12.13;;;;;;;28.06;45.83;95461.94;6107884;28;109248;-69
2023/07/17 08:15:09;;;;;;;13.80;12.47;;;;;;;28.03;45.97;95455.31;6110870;28;109081;-70
2023/07/17 08:18:14;;;;;;;13.03;11.70;;;;;;;28.02;45.35;95453.72;6113763;28;109233;-70
2023/07/17 08:21:17;;;;;;;13.97;12.60;;;;;;;28.15;45.75;95446.47;6113470;28;109061;-70
2023/07/17 08:24:20;;;;;;;14.30;13.10;;;;;;;28.57;44.94;95443.59;6102708;28;109141;-69
2023/07/17 08:27:24;;;;;;;12.97;11.87;;;;;;;28.60;45.45;95440.22;6112379;28;109233;-69
2023/07/17 08:30:30;;;;;;;15.13;12.30;;;;;;;28.75;45.32;95436.06;6112951;28;109120;-71
2023/07/17 08:33:35;;;;;;;13.30;11.97;;;;;;;28.77;45.68;95444.59;6113165;28;109299;-70
2023/07/17 08:36:38;;;;;;;12.80;11.70;;;;;;;28.62;45.38;95438.78;6102915;28;109537;-71
2023/07/17 08:39:41;;;;;;;14.60;13.23;;;;;;;28.82;45.81;95436.28;6113260;28;110391;-69
2023/07/17 08:42:45;;;;;;;13.70;12.40;;;;;;;28.75;44.92;95430.69;6113405;28;108709;-69
2023/07/17 08:45:50;;;;;;;17.97;13.40;;;;;;;28.87;44.99;95433.34;6108521;28;110018;-68
2023/07/17 08:48:55;;;;;;;14.40;12.87;;;;;;;28.89;45.31;95437.25;6106973;28;109109;-70
2023/07/17 08:52:00;;;;;;;15.50;13.60;;;;;;;28.91;45.53;95423.47;6112352;28;109071;-70
2023/07/17 08:55:03;;;;;;;13.83;12.27;;;;;;;28.64;45.86;95431.13;6111789;28;109262;-70
2023/07/17 08:58:07;;;;;;;18.40;14.60;;;;;;;28.91;45.16;95426.16;6102597;28;109546;-69
2023/07/17 09:01:10;;;;;;;17.10;15.60;;;;;;;29.02;45.29;95424.53;6112386;28;109296;-69
2023/07/17 09:04:16;;;;;;;16.07;13.87;;;;;;;28.80;45.59;95425.06;6111743;28;109150;-69
2023/07/17 09:07:19;;;;;;;15.60;14.00;;;;;;;28.94;45.40;95417.41;6113211;28;110525;-69
2023/07/17 09:10:23;;;;;;;14.97;13.47;;;;;;;28.99;44.53;95419.84;6102560;28;109200;-71
2023/07/17 09:13:36;;;;;;;14.20;13.00;;;;;;;29.13;45.15;95414.88;6112491;28;110172;-69
2023/07/17 09:16:40;;;;;;;14.73;12.37;;;;;;;29.11;44.51;95416.38;6113153;28;110217;-61
2023/07/17 09:19:45;;;;;;;14.20;13.00;;;;;;;29.12;44.69;95410.63;6108670;28;108912;-65
2023/07/17 09:22:49;;;;;;;14.77;12.67;;;;;;;29.15;45.12;95404.56;6106560;28;109404;-62
2023/07/17 09:25:54;;;;;;;15.13;13.60;;;;;;;29.26;44.98;95409.47;6111214;28;109052;-63
2023/07/17 09:28:58;;;;;;;14.30;12.80;;;;;;;29.10;44.86;95398.63;6111456;28;109284;-62
2023/07/17 09:32:15;;;;;;;14.73;13.00;;;;;;;29.00;45.22;95399.84;6102334;28;110059;-62
2023/07/17 09:35:23;;;;;;;13.47;12.13;;;;;;;29.15;44.06;95398.38;6112019;28;109069;-62
2023/07/17 09:38:27;;;;;;;14.07;12.70;;;;;;;29.19;44.42;95396.56;6111927;28;108768;-62
2023/07/17 09:41:30;;;;;;;15.53;12.63;;;;;;;29.21;43.97;95397.78;6111484;28;109416;-62
2023/07/17 09:44:33;;;;;;;16.50;12.43;;;;;;;29.29;43.98;95401.47;6101077;28;109033;-62
2023/07/17 09:47:37;;;;;;;13.03;11.73;;;;;;;29.15;44.55;95388.38;6111895;28;109260;-61
2023/07/17 09:50:42;;;;;;;13.70;12.50;;;;;;;29.20;43.33;95381.94;6111711;28;109072;-62
2023/07/17 09:53:46;;;;;;;16.97;15.50;;;;;;;29.21;44.19;95383.50;6108867;28;109786;-63
2023/07/17 09:56:50;;;;;;;13.30;12.10;;;;;;;29.23;43.04;95382.06;6106397;28;110023;-62
2023/07/17 09:59:55;;;;;;;12.47;11.37;;;;;;;29.24;42.58;95389.03;6111792;28;109650;-62
2023/07/17 10:03:05;;;;;;;12.70;11.43;;;;;;;29.25;42.12;95379.03;6111247;28;109104;-61
2023/07/17 10:06:11;;;;;;;12.97;11.87;;;;;;;29.19;41.51;95377.69;6100864;28;109327;-62
2023/07/17 10:09:20;;;;;;;13.03;10.17;;;;;;;29.26;41.24;95382.50;6111122;28;109057;-61
2023/07/17 10:12:23;;;;;;;10.50;9.60;;;;;;;29.21;41.46;95378.91;6110891;28;109394;-62
2023/07/17 10:15:28;;;;;;;12.47;11.40;;;;;;;29.26;42.26;95377.13;6111333;28;109079;-62
2023/07/17 10:18:31;;;;;;;11.17;9.80;;;;;;;29.26;42.45;95374.41;6105394;28;109451;-62
2023/07/17 10:21:53;;;;;;;11.13;10.33;;;;;;;29.23;41.44;95365.91;6115448;28;109027;-63
2023/07/17 10:24:56;;;;;;;11.30;10.20;;;;;;;29.27;40.56;95365.97;6115304;28;109077;-71
2023/07/17 10:28:01;;;;;;;10.30;9.40;;;;;;;29.25;39.32;95362.84;6109168;28;109212;-70
2023/07/17 10:31:09;;;;;;;10.40;9.47;;;;;;;29.24;39.66;95361.28;6110875;28;111871;-71
2023/07/17 10:34:13;;;;;;;10.57;9.77;;;;;;;29.24;39.90;95353.19;6115662;28;109185;-71
2023/07/17 10:37:40;;;;;;;12.10;9.83;;;;;;;29.24;40.07;95347.81;6115041;28;109195;-71
2023/07/17 10:40:43;;;;;;;9.53;8.70;;;;;;;29.28;39.63;95350.59;6104849;28;109053;-71
2023/07/17 10:43:51;;;;;;;12.37;9.77;;;;;;;29.19;40.83;95356.13;6115016;28;109041;-69
2023/07/17 10:47:04;;;;;;;11.10;10.00;;;;;;;29.12;41.05;95345.94;6115202;28;109403;-71
2023/07/17 10:50:08;;;;;;;13.07;10.77;;;;;;;29.08;40.81;95355.06;6115383;28;109025;-72
2023/07/17 10:53:13;;;;;;;10.70;9.80;;;;;;;29.21;39.46;95345.78;6105032;28;109789;-71
2023/07/17 10:56:16;;;;;;;10.63;9.67;;;;;;;29.16;39.28;95337.94;6114807;28;108977;-71
2023/07/17 10:59:20;;;;;;;9.97;9.23;;;;;;;29.17;39.02;95344.91;6114569;28;109061;-72
2023/07/17 11:02:25;;;;;;;10.77;9.77;;;;;;;29.11;39.77;95341.69;6110077;28;109320;-71
2023/07/17 11:05:28;;;;;;;10.73;9.77;;;;;;;29.09;39.42;95340.47;6101042;28;109188;-71
2023/07/17 11:08:32;;;;;;;10.57;9.67;;;;;;;29.02;40.49;95342.91;6090752;28;109473;-71
2023/07/17 11:11:36;;;;;;;10.70;9.90;;;;;;;29.03;40.74;95334.47;6091249;28;110474;-71
2023/07/17 11:14:39;;;;;;;10.20;9.30;;;;;;;29.18;39.00;95333.78;6081775;28;109388;-71
2023/07/17 11:17:42;;;;;;;10.33;9.27;;;;;;;29.15;39.08;95331.78;6114362;28;109069;-71
2023/07/17 11:20:45;;;;;;;9.87;9.07;;;;;;;29.25;36.19;95322.41;6114916;28;109025;-71
2023/07/17 11:23:52;;;;;;;8.80;7.90;;;;;;;29.25;35.98;95325.09;6114252;28;109101;-72
2023/07/17 11:26:55;;;;;;;9.27;8.57;;;;;;;29.23;36.93;95322.75;6103067;28;109209;-70
2023/07/17 11:29:58;;;;;;;9.90;9.00;;;;;;;29.25;36.61;95317.03;6113584;28;108677;-70
2023/07/17 11:33:03;;;;;;;9.23;8.43;;;;;;;29.23;36.79;95314.69;6113904;28;109338;-70
2023/07/17 11:36:16;;;;;;;9.77;8.87;;;;;;;29.16;37.98;95311.78;6109494;28;110232;-71
2023/07/17 11:39:21;;;;;;;13.70;9.10;;;;;;;29.20;37.13;95306.47;6108948;28;114293;-71
2023/07/17 11:42:24;;;;;;;10.03;9.10;;;;;;;29.23;37.61;95303.88;6110943;28;108958;-71
2023/07/17 11:45:28;;;;;;;9.57;8.77;;;;;;;29.17;37.90;95301.78;6114022;28;109075;-73
2023/07/17 11:48:33;;;;;;;9.53;8.83;;;;;;;29.21;36.80;95303.44;6103463;28;109061;-69
2023/07/17 11:51:41;;;;;;;10.90;8.23;;;;;;;29.28;36.05;95293.97;6113733;28;109049;-70
2023/07/17 11:54:46;;;;;;;8.90;8.10;;;;;;;29.27;36.72;95290.50;6112477;28;109389;-70
2023/07/17 11:57:52;;;;;;;9.40;8.60;;;;;;;29.30;35.47;95289.81;6112766;28;109368;-70
2023/07/17 12:01:06;;;;;;;9.57;8.57;;;;;;;29.33;35.72;95291.78;6101328;28;109132;-70
2023/07/17 12:04:17;;;;;;;9.90;8.90;;;;;;;29.32;36.39;95284.84;6113089;28;109195;-69
2023/07/17 12:07:21;;;;;;;15.00;10.10;;;;;;;29.33;36.42;95285.63;6113107;28;109404;-70
2023/07/17 12:10:25;;;;;;;10.33;9.30;;;;;;;29.34;36.14;95289.88;6108238;28;109350;-70
2023/07/17 12:13:29;;;;;;;9.60;8.77;;;;;;;29.38;36.23;95269.19;6107703;28;109392;-71
2023/07/17 12:16:32;;;;;;;11.30;8.67;;;;;;;29.35;36.34;95280.66;6113328;28;109820;-71
2023/07/17 12:19:35;;;;;;;9.33;8.50;;;;;;;29.35;36.13;95283.34;6113181;28;109096;-71
2023/07/17 12:22:39;;;;;;;9.53;8.70;;;;;;;29.36;36.80;95282.22;6102511;28;109078;-70
2023/07/17 12:25:45;;;;;;;9.63;8.83;;;;;;;29.30;37.47;95278.22;6112911;28;110352;-71
2023/07/17 12:28:48;;;;;;;9.67;8.83;;;;;;;29.22;37.74;95272.63;6111945;28;109107;-71
2023/07/17 12:31:53;;;;;;;9.47;8.57;;;;;;;29.13;38.72;95274.72;6092841;28;108820;-71
2023/07/17 12:34:56;;;;;;;9.57;8.77;;;;;;;29.05;38.87;95278.34;6077432;28;109109;-71
2023/07/17 12:37:59;;;;;;;9.70;8.90;;;;;;;28.98;38.77;95271.97;6089254;28;109074;-71
2023/07/17 12:41:04;;;;;;;9.43;8.70;;;;;;;28.94;38.96;95271.88;6088657;28;109080;-71
2023/07/17 12:44:07;;;;;;;9.10;8.50;;;;;;;28.92;39.32;95271.44;6094319;28;110046;-67
2023/07/17 12:47:10;;;;;;;10.03;9.13;;;;;;;28.90;39.63;95271.00;6105416;28;109679;-61
2023/07/17 12:50:13;;;;;;;10.60;9.60;;;;;;;28.92;39.05;95268.75;6113328;28;111480;-62
2023/07/17 12:53:17;;;;;;;9.97;8.97;;;;;;;28.88;39.67;95260.56;6112965;28;109066;-62
2023/07/17 12:56:21;;;;;;;9.00;8.30;;;;;;;28.85;38.93;95260.47;6102779;28;109621;-62
2023/07/17 12:59:29;;;;;;;10.90;10.00;;;;;;;28.87;38.42;95266.28;6112100;28;109171;-62
2023/07/17 13:02:33;;;;;;;11.10;10.10;;;;;;;28.83;38.47;95262.72;6112279;28;112515;-62
2023/07/17 13:05:37;;;;;;;10.50;9.70;;;;;;;28.87;37.81;95258.22;6112337;28;109253;-62
2023/07/17 13:08:40;;;;;;;8.07;7.37;;;;;;;28.99;35.62;95247.38;6101601;28;109178;-62
2023/07/17 13:11:45;;;;;;;8.73;8.03;;;;;;;29.03;34.96;95248.25;6112831;28;109872;-62
2023/07/17 13:14:48;;;;;;;7.20;6.50;;;;;;;28.98;36.11;95245.03;6112758;28;112121;-62
2023/07/17 13:17:51;;;;;;;8.37;7.77;;;;;;;28.92;36.14;95244.50;6112960;28;111749;-62
2023/07/17 13:20:54;;;;;;;8.40;7.70;;;;;;;28.88;36.23;95246.31;6102685;28;109662;-63
2023/07/17 13:23:58;;;;;;;8.57;7.77;;;;;;;28.89;36.89;95243.25;6112225;28;109087;-62
2023/07/17 13:27:03;;;;;;;8.77;7.90;;;;;;;28.92;36.91;95236.44;6111373;28;109364;-62
2023/07/17 13:30:08;;;;;;;8.53;7.83;;;;;;;28.92;36.80;95242.59;6107556;28;110072;-62
2023/07/17 13:33:11;;;;;;;8.93;8.23;;;;;;;28.92;36.77;95239.13;6106148;28;109254;-61
2023/07/17 13:36:14;;;;;;;8.90;8.20;;;;;;;28.93;37.25;95235.28;6111866;28;109482;-61
2023/07/17 13:39:17;;;;;;;9.53;8.73;;;;;;;28.95;37.91;95236.50;6111478;28;109069;-61
2023/07/17 13:42:21;;;;;;;8.80;8.13;;;;;;;28.95;38.42;95225.72;6101328;28;109311;-61
2023/07/17 13:45:25;;;;;;;9.37;8.67;;;;;;;28.94;38.51;95226.09;6111708;28;109085;-61
2023/07/17 13:48:29;;;;;;;9.47;8.77;;;;;;;28.89;38.42;95223.63;6112220;28;108838;-61
2023/07/17 13:51:33;;;;;;;9.43;8.63;;;;;;;28.92;38.63;95212.19;6113230;28;110111;-61
2023/07/17 13:54:36;;;;;;;10.13;9.17;;;;;;;28.96;38.65;95218.44;6105666;28;110358;-70
2023/07/17 13:57:40;;;;;;;9.87;9.07;;;;;;;28.99;39.01;95209.66;6115929;28;109011;-70
2023/07/17 14:00:43;;;;;;;9.97;9.17;;;;;;;29.02;39.14;95200.09;6116214;28;109035;-71
2023/07/17 14:03:47;;;;;;;10.23;9.30;;;;;;;29.10;39.08;95197.28;6110758;28;109044;-69